KGAD Airport (Northeast Alabama Rgnl) Information

FAA: GAD - ICAO: KGAD

KGAD Airport Location

State Alabama
County Etowah
City Gadsden
KGAD Airport is 4 miles southwest of Gadsden, AL.
Latitude 33-58-21.5359N
Longitude 086-05-20.7004W
Elevation 569ft

KGAD Airport METARs

METAR KGAD 251556Z AUTO 23005KT 10SM 22/19 A2991 RMK AO2 SLP128 T02220189 $
Altimeter 29.91"
Temperature 22.2°C (72.0°F)
Wind 230° at 5KT
Clouds at 0ft
Visibility 10.0mi
Time observed: 2021-10-25T15:56:00Z

KGAD Airport Details

Status Operational
Activation January 1944
Ownership Public
Usage Public
Chart ATLANTA
ATC on-site No
Beacon schedule sunset-sunrise
Beacon color clear green

KGAD Airport Contacts

Owner GADSDEN AIRPORT AUTHORITY
Owner address 185 IRA GRAY DR., GADSDEN, AL 35904
Owner phone 256-442-3313
Manager RANDALL GOBER
Manager address 185 IRA GRAY DRIVE, GADSDEN, AL 35904
Manager phone 256-328-4700

KGAD Airport (Northeast Alabama Rgnl) Radio Frequencies

KGAD (Airport) Radio Frequencies

UNICOM 122.8
Common traffic advisory frequency (CTAF) 122.8